CheckWX is a tool to help pilots better visualize weather data.  It is not intended as a substitute for an official pre-flight weather briefing.

11:46:18 UTC

YPAD TAF
Adelaide International Airport
Adelaide, Australia
TAF AMD YPAD 191107Z 1912/2018 19016KT 9999 -SHRA FEW020 BKN025 FM201000 18008KT 9999 NSW SCT025 INTER 1912/1915 19020G30KT 3000 SHRA BKN010 INTER 1915/1918 19020G30KT 5000 SHRA BKN010

Jan-19@
12:00 UTC

Jan-19 @ 12:00 UTC

Jan-20@
10:00 UTC

Jan-20 @ 10:00 UTC

TAF AMD YPAD 191107Z 1912/2018 19016KT 9999 -SHRA FEW020 BKN025
Wind
  • 190° at 16 KTS
Conditions
Light Rain
Cloud Levels
  • Few at 2,000' AGL
  • Broken at 2,500' AGL

Jan-19@
12:00 UTC

Jan-19 @ 12:00 UTC

Jan-19@
15:00 UTC

Jan-19 @ 15:00 UTC

INTER 1912/1915 19020G30KT 3000 SHRA BKN010

Temporary

Temporary Changes expected for less than half the time period

Wind
  • 190° at 20 KTS
  • {Gusting to 30 KTS
Conditions
Rain
Cloud Levels
  • Broken at 1,000' AGL

Jan-19@
15:00 UTC

Jan-19 @ 15:00 UTC

Jan-19@
18:00 UTC

Jan-19 @ 18:00 UTC

INTER 1915/1918 19020G30KT 5000 SHRA BKN010

Temporary

Temporary Changes expected for less than half the time period

Wind
  • 190° at 20 KTS
  • {Gusting to 30 KTS
Conditions
Rain
Cloud Levels
  • Broken at 1,000' AGL

Jan-20@
10:00 UTC

Jan-20 @ 10:00 UTC

Jan-20@
18:00 UTC

Jan-20 @ 18:00 UTC

FM201000 18008KT 9999 NSW SCT025

From

From Standard forecast or significant change

Wind
  • 180° at 8 KTS
Conditions
No significant weather
Cloud Levels
  • Scattered at 2,500' AGL